Shelby — WCV6157 — position and weather

sailwx.info

Track history (hours):
 
Tides and Currents Weather Stations Pressure Air Temp Water Temp Dewpoint Dewpoint Depression Visibility Wind Speed Wind Dir Waves Ship Positions

Shelby

Owner: WEEKS MARINE, INC., CRANFORD, NJ. More information available from US FCC via Universal Licensing System and Coast Guard Vessel Documentation Center.

Last reported at 2018-May-22 13:22 UTC. Time now 2018-May-25 06:51 UTC.
Position N 40°48' W 073°59'.

Length 22 m; draft 3.1 m.

Type: Tug. MMSI: 366902344.

Date/timePositionNaut miles runAvg speedWind from/ knotsBaromVisibWave heightAir tempDewpointWater temp
2018-May-22 13:22N 40°48' W 073°59'2 6.6
2018-May-22 13:00N 40°46' W 074°01'4 7.2
2018-May-22 12:30N 40°42' W 074°02'3 5.2
2018-May-22 12:00N 40°41' W 074°04'0 0.0
2018-May-22 11:30N 40°41' W 074°04'0 0.1
2018-May-22 11:00N 40°41' W 074°05'0 0.0
2018-May-22 10:30N 40°41' W 074°05'0 0.0
2018-May-22 10:00N 40°41' W 074°05'0 0.0
2018-May-22 09:30N 40°41' W 074°05'0 0.0
2018-May-22 09:00N 40°41' W 074°05'0 0.0
2018-May-22 08:30N 40°41' W 074°05'0 0.0
2018-May-22 08:00N 40°41' W 074°05'0 0.0
2018-May-22 07:30N 40°41' W 074°05'0 0.0
2018-May-22 07:00N 40°41' W 074°05'0 0.0
2018-May-22 06:30N 40°41' W 074°05'0 0.0
2018-May-22 06:00N 40°41' W 074°05'0 0.0
2018-May-22 05:30N 40°41' W 074°05'0 0.0
2018-May-22 05:00N 40°41' W 074°05'0 0.0
2018-May-22 04:30N 40°41' W 074°05'0 0.0
2018-May-22 04:00N 40°41' W 074°05'0 0.0
2018-May-22 03:30N 40°41' W 074°05'0 0.0
2018-May-22 03:00N 40°41' W 074°05'0 0.0
2018-May-22 02:30N 40°41' W 074°05'0 0.0
2018-May-22 02:00N 40°41' W 074°05'0 0.0
2018-May-22 01:30N 40°41' W 074°05'0 0.0
2018-May-22 01:00N 40°41' W 074°05'0 0.0
2018-May-22 00:30N 40°41' W 074°05'0 0.0
2018-May-22 00:00N 40°41' W 074°05'0 0.0
2018-May-21 23:30N 40°41' W 074°05'0 0.0
2018-May-21 23:00N 40°41' W 074°05'0 0.0
2018-May-21 22:30N 40°41' W 074°05'0 0.0
2018-May-21 21:59N 40°41' W 074°05'0 0.0
2018-May-21 21:29N 40°41' W 074°05'0 0.0
2018-May-21 21:00N 40°41' W 074°05'0 0.0
2018-May-21 20:30N 40°41' W 074°05'2 3.6
2018-May-21 20:00N 40°41' W 074°02'5 9.1
2018-May-21 19:30N 40°46' W 074°01'2 0.1
2018-May-20 21:53N 40°47' W 073°60'3 7.9
2018-May-20 21:30N 40°44' W 074°01'4 8.1
2018-May-20 21:00N 40°41' W 074°03'1 1.7
2018-May-20 20:30N 40°40' W 074°04'0 0.2
2018-May-20 20:00N 40°41' W 074°04'0 0.4
2018-May-20 19:30N 40°41' W 074°04'0 0.2
2018-May-20 19:00N 40°41' W 074°04'0 0.3
2018-May-20 18:30N 40°40' W 074°04'0 0.4
2018-May-20 18:00N 40°41' W 074°05'0 0.0
2018-May-20 17:30N 40°41' W 074°05'0 0.0
2018-May-20 17:00N 40°41' W 074°05'0 0.0
2018-May-20 16:30N 40°41' W 074°05'0 0.1
2018-May-20 16:01N 40°41' W 074°05'0 0.1
2018-May-20 15:30N 40°41' W 074°05'0 0.0
2018-May-20 15:00N 40°41' W 074°05'0 0.0
2018-May-20 14:30N 40°41' W 074°05'0 0.0
2018-May-20 14:00N 40°41' W 074°05'1 2.0
2018-May-20 13:30N 40°40' W 074°04'2 0.7
2018-May-20 10:42N 40°39' W 074°07'1 7.4
2018-May-20 10:30N 40°39' W 074°05'1 2.9
2018-May-20 10:00N 40°41' W 074°05'0 0.0
2018-May-20 09:30N 40°41' W 074°05'0 0.0
2018-May-20 09:00N 40°41' W 074°05'0 0.0
2018-May-20 08:30N 40°41' W 074°05'0 0.0
2018-May-20 08:00N 40°41' W 074°05'0 0.0
2018-May-20 07:30N 40°41' W 074°05'0 0.0
2018-May-20 06:58N 40°41' W 074°05'0 0.0
2018-May-20 06:29N 40°41' W 074°05'0 0.0
2018-May-20 06:00N 40°41' W 074°05'0 0.0
2018-May-20 05:30N 40°41' W 074°05'0 0.0
2018-May-20 05:00N 40°41' W 074°05'0 0.0
2018-May-20 04:27N 40°41' W 074°05'0 0.0
2018-May-20 04:00N 40°41' W 074°05'0 0.0
2018-May-20 03:30N 40°41' W 074°05'0 0.0
2018-May-20 03:00N 40°41' W 074°05'0 0.0
2018-May-20 02:30N 40°41' W 074°05'0 0.0
2018-May-20 02:00N 40°41' W 074°05'0 0.0
2018-May-20 01:29N 40°41' W 074°05'0 0.0
2018-May-20 00:57N 40°41' W 074°05'0 0.0
2018-May-20 00:28N 40°41' W 074°05'0 0.0
2018-May-19 23:43N 40°41' W 074°05'0 0.0
2018-May-19 23:30N 40°41' W 074°05'0 0.0
2018-May-19 22:59N 40°41' W 074°05'0 0.0
2018-May-19 22:23N 40°41' W 074°05'0 0.0
2018-May-19 21:58N 40°41' W 074°05'0 0.0
2018-May-19 21:28N 40°41' W 074°05'0 0.0
2018-May-19 20:57N 40°41' W 074°05'0 0.0
2018-May-19 20:18N 40°41' W 074°05'0 0.0
2018-May-19 19:56N 40°41' W 074°05'0 0.0
2018-May-19 19:30N 40°41' W 074°05'0 0.0
2018-May-19 19:00N 40°41' W 074°05'0 0.0
2018-May-19 18:30N 40°41' W 074°05'0 0.0
2018-May-19 18:00N 40°41' W 074°05'0 0.0
2018-May-19 17:30N 40°41' W 074°05'0 0.0
2018-May-19 17:00N 40°41' W 074°05'0 0.0
2018-May-19 16:30N 40°41' W 074°05'0 0.0
2018-May-19 16:00N 40°41' W 074°05'0 0.0
2018-May-19 15:30N 40°41' W 074°05'0 0.0
2018-May-19 14:58N 40°41' W 074°05'0 0.0
2018-May-19 14:30N 40°41' W 074°05'0 0.3
2018-May-19 14:00N 40°41' W 074°04'0 0.1
2018-May-19 13:30N 40°41' W 074°04'0 0.2
2018-May-19 13:00N 40°41' W 074°05'0 0.3
2018-May-19 12:30N 40°41' W 074°04'0 0.2
2018-May-19 12:00N 40°41' W 074°04'0 0.1
2018-May-19 11:30N 40°41' W 074°04'0 0.5
2018-May-19 11:00N 40°40' W 074°04'0 0.5
2018-May-19 10:30N 40°41' W 074°04'0 0.2
2018-May-19 09:59N 40°41' W 074°05'0 0.0
2018-May-19 09:30N 40°41' W 074°05'0 0.0
2018-May-19 09:00N 40°41' W 074°05'0 0.0
2018-May-19 08:30N 40°41' W 074°05'0 0.0
2018-May-19 08:00N 40°41' W 074°05'0 0.0
2018-May-19 07:30N 40°41' W 074°05'0 0.0
2018-May-19 07:00N 40°41' W 074°05'0 0.0
2018-May-19 06:30N 40°41' W 074°05'0 0.0
2018-May-19 06:00N 40°41' W 074°05'0 0.0
2018-May-19 05:30N 40°41' W 074°05'0 0.0
2018-May-19 05:00N 40°41' W 074°05'0 0.0
2018-May-19 04:30N 40°41' W 074°05'0 0.0
2018-May-19 04:00N 40°41' W 074°05'0 0.0
2018-May-19 03:30N 40°41' W 074°05'0 0.0
2018-May-19 03:00N 40°41' W 074°05'0 0.0
2018-May-19 02:30N 40°41' W 074°05'0 0.0
2018-May-19 02:00N 40°41' W 074°05'0 0.0
2018-May-19 01:30N 40°41' W 074°05'0 0.0
2018-May-19 01:00N 40°41' W 074°05'0 0.0
2018-May-19 00:30N 40°41' W 074°05'0 0.0
2018-May-19 00:00N 40°41' W 074°05'0 0.0
2018-May-18 23:30N 40°41' W 074°05'0 0.0
2018-May-18 23:00N 40°41' W 074°05'0 0.2
2018-May-18 22:30N 40°41' W 074°04'0 0.3
2018-May-18 22:00N 40°41' W 074°04'0 0.2
2018-May-18 21:30N 40°40' W 074°04'1 1.6
2018-May-18 21:01N 40°41' W 074°03'4 8.2
2018-May-18 20:30N 40°44' W 074°01'  
2018-May-13 11:19N 40°47' W 073°60'2 8.2
2018-May-13 11:00N 40°44' W 074°01'4 7.7
2018-May-13 10:30N 40°41' W 074°03'1 2.4
2018-May-13 10:01N 40°41' W 074°04'0 0.0
2018-May-13 09:31N 40°41' W 074°04'0 0.0
2018-May-13 09:01N 40°41' W 074°04'0 0.0
2018-May-13 08:30N 40°41' W 074°04'0 0.0
2018-May-13 08:01N 40°41' W 074°04'0 0.0
2018-May-13 07:31N 40°41' W 074°04'0 0.0
2018-May-13 07:00N 40°41' W 074°04'0 0.0
2018-May-13 06:31N 40°41' W 074°04'0 0.0
2018-May-13 05:59N 40°41' W 074°04'0 0.0
2018-May-13 05:31N 40°41' W 074°04'0 0.0
2018-May-13 05:00N 40°41' W 074°04'0 0.0
2018-May-13 04:31N 40°41' W 074°04'0 0.0
2018-May-13 04:01N 40°41' W 074°04'0 0.0
2018-May-13 03:29N 40°41' W 074°04'0 0.0
2018-May-13 03:00N 40°41' W 074°04'0 0.0
2018-May-13 02:30N 40°41' W 074°04'0 0.0
2018-May-13 02:00N 40°41' W 074°04'0 0.0
2018-May-13 01:31N 40°41' W 074°04'0 0.0
2018-May-13 01:01N 40°41' W 074°04'0 0.0
2018-May-13 00:31N 40°41' W 074°04'0 0.0
2018-May-13 00:00N 40°41' W 074°04'0 0.0
2018-May-12 23:30N 40°41' W 074°04'0 0.0
2018-May-12 23:01N 40°41' W 074°04'0 0.0
2018-May-12 22:31N 40°41' W 074°04'0 0.0
2018-May-12 22:01N 40°41' W 074°04'0 0.2
2018-May-12 21:31N 40°41' W 074°04'0 0.6
2018-May-12 21:01N 40°41' W 074°05'0 0.0
2018-May-12 20:30N 40°41' W 074°05'0 0.0
2018-May-12 20:01N 40°41' W 074°05'0 0.0
2018-May-12 19:31N 40°41' W 074°05'0 0.0
2018-May-12 19:01N 40°41' W 074°05'0 0.0
2018-May-12 18:31N 40°41' W 074°05'0 0.0
2018-May-12 18:01N 40°41' W 074°05'0 0.0
2018-May-12 17:31N 40°41' W 074°05'0 0.0
2018-May-12 17:01N 40°41' W 074°05'0 0.0
2018-May-12 16:31N 40°41' W 074°05'0 0.0
2018-May-12 16:01N 40°41' W 074°05'0 0.0
2018-May-12 15:31N 40°41' W 074°05'0 0.0
2018-May-12 15:01N 40°41' W 074°05'0 0.0
2018-May-12 14:30N 40°41' W 074°05'0 0.0
2018-May-12 14:00N 40°41' W 074°05'0 0.0
2018-May-12 13:30N 40°41' W 074°05'  
Track history (hours):
 
Tides and Currents Weather Stations Pressure Air Temp Water Temp Dewpoint Dewpoint Depression Visibility Wind Speed Wind Dir Waves Ship Positions

Shelby

Owner: WEEKS MARINE, INC., CRANFORD, NJ. More information available from US FCC via Universal Licensing System and Coast Guard Vessel Documentation Center.

Last reported at 2018-May-22 13:22 UTC. Time now 2018-May-25 06:51 UTC.
Position N 40°48' W 073°59'.

Length 22 m; draft 3.1 m.

Type: Tug. MMSI: 366902344.

Date/timePositionNaut miles runAvg speedWind from/ knotsBaromVisibWave heightAir tempDewpointWater temp
2018-May-22 13:22N 40°48' W 073°59'2 6.6
2018-May-22 13:00N 40°46' W 074°01'4 7.2
2018-May-22 12:30N 40°42' W 074°02'3 5.2
2018-May-22 12:00N 40°41' W 074°04'0 0.0
2018-May-22 11:30N 40°41' W 074°04'0 0.1
2018-May-22 11:00N 40°41' W 074°05'0 0.0
2018-May-22 10:30N 40°41' W 074°05'0 0.0
2018-May-22 10:00N 40°41' W 074°05'0 0.0
2018-May-22 09:30N 40°41' W 074°05'0 0.0
2018-May-22 09:00N 40°41' W 074°05'0 0.0
2018-May-22 08:30N 40°41' W 074°05'0 0.0
2018-May-22 08:00N 40°41' W 074°05'0 0.0
2018-May-22 07:30N 40°41' W 074°05'0 0.0
2018-May-22 07:00N 40°41' W 074°05'0 0.0
2018-May-22 06:30N 40°41' W 074°05'0 0.0
2018-May-22 06:00N 40°41' W 074°05'0 0.0
2018-May-22 05:30N 40°41' W 074°05'0 0.0
2018-May-22 05:00N 40°41' W 074°05'0 0.0
2018-May-22 04:30N 40°41' W 074°05'0 0.0
2018-May-22 04:00N 40°41' W 074°05'0 0.0
2018-May-22 03:30N 40°41' W 074°05'0 0.0
2018-May-22 03:00N 40°41' W 074°05'0 0.0
2018-May-22 02:30N 40°41' W 074°05'0 0.0
2018-May-22 02:00N 40°41' W 074°05'0 0.0
2018-May-22 01:30N 40°41' W 074°05'0 0.0
2018-May-22 01:00N 40°41' W 074°05'0 0.0
2018-May-22 00:30N 40°41' W 074°05'0 0.0
2018-May-22 00:00N 40°41' W 074°05'0 0.0
2018-May-21 23:30N 40°41' W 074°05'0 0.0
2018-May-21 23:00N 40°41' W 074°05'0 0.0
2018-May-21 22:30N 40°41' W 074°05'0 0.0
2018-May-21 21:59N 40°41' W 074°05'0 0.0
2018-May-21 21:29N 40°41' W 074°05'0 0.0
2018-May-21 21:00N 40°41' W 074°05'0 0.0
2018-May-21 20:30N 40°41' W 074°05'2 3.6
2018-May-21 20:00N 40°41' W 074°02'5 9.1
2018-May-21 19:30N 40°46' W 074°01'2 0.1
2018-May-20 21:53N 40°47' W 073°60'3 7.9
2018-May-20 21:30N 40°44' W 074°01'4 8.1
2018-May-20 21:00N 40°41' W 074°03'1 1.7
2018-May-20 20:30N 40°40' W 074°04'0 0.2
2018-May-20 20:00N 40°41' W 074°04'0 0.4
2018-May-20 19:30N 40°41' W 074°04'0 0.2
2018-May-20 19:00N 40°41' W 074°04'0 0.3
2018-May-20 18:30N 40°40' W 074°04'0 0.4
2018-May-20 18:00N 40°41' W 074°05'0 0.0
2018-May-20 17:30N 40°41' W 074°05'0 0.0
2018-May-20 17:00N 40°41' W 074°05'0 0.0
2018-May-20 16:30N 40°41' W 074°05'0 0.1
2018-May-20 16:01N 40°41' W 074°05'0 0.1
2018-May-20 15:30N 40°41' W 074°05'0 0.0
2018-May-20 15:00N 40°41' W 074°05'0 0.0
2018-May-20 14:30N 40°41' W 074°05'0 0.0
2018-May-20 14:00N 40°41' W 074°05'1 2.0
2018-May-20 13:30N 40°40' W 074°04'2 0.7
2018-May-20 10:42N 40°39' W 074°07'1 7.4
2018-May-20 10:30N 40°39' W 074°05'1 2.9
2018-May-20 10:00N 40°41' W 074°05'0 0.0
2018-May-20 09:30N 40°41' W 074°05'0 0.0
2018-May-20 09:00N 40°41' W 074°05'0 0.0
2018-May-20 08:30N 40°41' W 074°05'0 0.0
2018-May-20 08:00N 40°41' W 074°05'0 0.0
2018-May-20 07:30N 40°41' W 074°05'0 0.0
2018-May-20 06:58N 40°41' W 074°05'0 0.0
2018-May-20 06:29N 40°41' W 074°05'0 0.0
2018-May-20 06:00N 40°41' W 074°05'0 0.0
2018-May-20 05:30N 40°41' W 074°05'0 0.0
2018-May-20 05:00N 40°41' W 074°05'0 0.0
2018-May-20 04:27N 40°41' W 074°05'0 0.0
2018-May-20 04:00N 40°41' W 074°05'0 0.0
2018-May-20 03:30N 40°41' W 074°05'0 0.0
2018-May-20 03:00N 40°41' W 074°05'0 0.0
2018-May-20 02:30N 40°41' W 074°05'0 0.0
2018-May-20 02:00N 40°41' W 074°05'0 0.0
2018-May-20 01:29N 40°41' W 074°05'0 0.0
2018-May-20 00:57N 40°41' W 074°05'0 0.0
2018-May-20 00:28N 40°41' W 074°05'0 0.0
2018-May-19 23:43N 40°41' W 074°05'0 0.0
2018-May-19 23:30N 40°41' W 074°05'0 0.0
2018-May-19 22:59N 40°41' W 074°05'0 0.0
2018-May-19 22:23N 40°41' W 074°05'0 0.0
2018-May-19 21:58N 40°41' W 074°05'0 0.0
2018-May-19 21:28N 40°41' W 074°05'0 0.0
2018-May-19 20:57N 40°41' W 074°05'0 0.0
2018-May-19 20:18N 40°41' W 074°05'0 0.0
2018-May-19 19:56N 40°41' W 074°05'0 0.0
2018-May-19 19:30N 40°41' W 074°05'0 0.0
2018-May-19 19:00N 40°41' W 074°05'0 0.0
2018-May-19 18:30N 40°41' W 074°05'0 0.0
2018-May-19 18:00N 40°41' W 074°05'0 0.0
2018-May-19 17:30N 40°41' W 074°05'0 0.0
2018-May-19 17:00N 40°41' W 074°05'0 0.0
2018-May-19 16:30N 40°41' W 074°05'0 0.0
2018-May-19 16:00N 40°41' W 074°05'0 0.0
2018-May-19 15:30N 40°41' W 074°05'0 0.0
2018-May-19 14:58N 40°41' W 074°05'0 0.0
2018-May-19 14:30N 40°41' W 074°05'0 0.3
2018-May-19 14:00N 40°41' W 074°04'0 0.1
2018-May-19 13:30N 40°41' W 074°04'0 0.2
2018-May-19 13:00N 40°41' W 074°05'0 0.3
2018-May-19 12:30N 40°41' W 074°04'0 0.2
2018-May-19 12:00N 40°41' W 074°04'0 0.1
2018-May-19 11:30N 40°41' W 074°04'0 0.5
2018-May-19 11:00N 40°40' W 074°04'0 0.5
2018-May-19 10:30N 40°41' W 074°04'0 0.2
2018-May-19 09:59N 40°41' W 074°05'0 0.0
2018-May-19 09:30N 40°41' W 074°05'0 0.0
2018-May-19 09:00N 40°41' W 074°05'0 0.0
2018-May-19 08:30N 40°41' W 074°05'0 0.0
2018-May-19 08:00N 40°41' W 074°05'0 0.0
2018-May-19 07:30N 40°41' W 074°05'0 0.0
2018-May-19 07:00N 40°41' W 074°05'0 0.0
2018-May-19 06:30N 40°41' W 074°05'0 0.0
2018-May-19 06:00N 40°41' W 074°05'0 0.0
2018-May-19 05:30N 40°41' W 074°05'0 0.0
2018-May-19 05:00N 40°41' W 074°05'0 0.0
2018-May-19 04:30N 40°41' W 074°05'0 0.0
2018-May-19 04:00N 40°41' W 074°05'0 0.0
2018-May-19 03:30N 40°41' W 074°05'0 0.0
2018-May-19 03:00N 40°41' W 074°05'0 0.0
2018-May-19 02:30N 40°41' W 074°05'0 0.0
2018-May-19 02:00N 40°41' W 074°05'0 0.0
2018-May-19 01:30N 40°41' W 074°05'0 0.0
2018-May-19 01:00N 40°41' W 074°05'0 0.0
2018-May-19 00:30N 40°41' W 074°05'0 0.0
2018-May-19 00:00N 40°41' W 074°05'0 0.0
2018-May-18 23:30N 40°41' W 074°05'0 0.0
2018-May-18 23:00N 40°41' W 074°05'0 0.2
2018-May-18 22:30N 40°41' W 074°04'0 0.3
2018-May-18 22:00N 40°41' W 074°04'0 0.2
2018-May-18 21:30N 40°40' W 074°04'1 1.6
2018-May-18 21:01N 40°41' W 074°03'4 8.2
2018-May-18 20:30N 40°44' W 074°01'  
2018-May-13 11:19N 40°47' W 073°60'2 8.2
2018-May-13 11:00N 40°44' W 074°01'4 7.7
2018-May-13 10:30N 40°41' W 074°03'1 2.4
2018-May-13 10:01N 40°41' W 074°04'0 0.0
2018-May-13 09:31N 40°41' W 074°04'0 0.0
2018-May-13 09:01N 40°41' W 074°04'0 0.0
2018-May-13 08:30N 40°41' W 074°04'0 0.0
2018-May-13 08:01N 40°41' W 074°04'0 0.0
2018-May-13 07:31N 40°41' W 074°04'0 0.0
2018-May-13 07:00N 40°41' W 074°04'0 0.0
2018-May-13 06:31N 40°41' W 074°04'0 0.0
2018-May-13 05:59N 40°41' W 074°04'0 0.0
2018-May-13 05:31N 40°41' W 074°04'0 0.0
2018-May-13 05:00N 40°41' W 074°04'0 0.0
2018-May-13 04:31N 40°41' W 074°04'0 0.0
2018-May-13 04:01N 40°41' W 074°04'0 0.0
2018-May-13 03:29N 40°41' W 074°04'0 0.0
2018-May-13 03:00N 40°41' W 074°04'0 0.0
2018-May-13 02:30N 40°41' W 074°04'0 0.0
2018-May-13 02:00N 40°41' W 074°04'0 0.0
2018-May-13 01:31N 40°41' W 074°04'0 0.0
2018-May-13 01:01N 40°41' W 074°04'0 0.0
2018-May-13 00:31N 40°41' W 074°04'0 0.0
2018-May-13 00:00N 40°41' W 074°04'0 0.0
2018-May-12 23:30N 40°41' W 074°04'0 0.0
2018-May-12 23:01N 40°41' W 074°04'0 0.0
2018-May-12 22:31N 40°41' W 074°04'0 0.0
2018-May-12 22:01N 40°41' W 074°04'0 0.2
2018-May-12 21:31N 40°41' W 074°04'0 0.6
2018-May-12 21:01N 40°41' W 074°05'0 0.0
2018-May-12 20:30N 40°41' W 074°05'0 0.0
2018-May-12 20:01N 40°41' W 074°05'0 0.0
2018-May-12 19:31N 40°41' W 074°05'0 0.0
2018-May-12 19:01N 40°41' W 074°05'0 0.0
2018-May-12 18:31N 40°41' W 074°05'0 0.0
2018-May-12 18:01N 40°41' W 074°05'0 0.0
2018-May-12 17:31N 40°41' W 074°05'0 0.0
2018-May-12 17:01N 40°41' W 074°05'0 0.0
2018-May-12 16:31N 40°41' W 074°05'0 0.0
2018-May-12 16:01N 40°41' W 074°05'0 0.0
2018-May-12 15:31N 40°41' W 074°05'0 0.0
2018-May-12 15:01N 40°41' W 074°05'0 0.0
2018-May-12 14:30N 40°41' W 074°05'0 0.0
2018-May-12 14:00N 40°41' W 074°05'0 0.0
2018-May-12 13:30N 40°41' W 074°05'  

Dump ship's entire track history